sensor_id;sensor_type;location;lat;lon;timestamp;temperature;humidity
16532;DHT22;66872;63.142;14.482;2023-05-16T00:00:16;18.80;32.60
16532;DHT22;66872;63.142;14.482;2023-05-16T00:02:42;18.80;32.60
16532;DHT22;66872;63.142;14.482;2023-05-16T00:05:07;18.70;32.50
16532;DHT22;66872;63.142;14.482;2023-05-16T00:07:35;18.70;32.50
16532;DHT22;66872;63.142;14.482;2023-05-16T00:10:01;18.70;32.50
16532;DHT22;66872;63.142;14.482;2023-05-16T00:12:27;18.70;32.50
16532;DHT22;66872;63.142;14.482;2023-05-16T00:14:53;18.70;32.50
16532;DHT22;66872;63.142;14.482;2023-05-16T00:17:20;18.70;32.50
16532;DHT22;66872;63.142;14.482;2023-05-16T00:19:46;18.70;32.50
16532;DHT22;66872;63.142;14.482;2023-05-16T00:22:16;18.70;32.50
16532;DHT22;66872;63.142;14.482;2023-05-16T00:24:42;18.70;32.60
16532;DHT22;66872;63.142;14.482;2023-05-16T00:27:07;18.70;32.60
16532;DHT22;66872;63.142;14.482;2023-05-16T00:29:35;18.70;32.60
16532;DHT22;66872;63.142;14.482;2023-05-16T00:32:01;18.70;32.60
16532;DHT22;66872;63.142;14.482;2023-05-16T00:34:27;18.70;32.60
16532;DHT22;66872;63.142;14.482;2023-05-16T00:36:52;18.70;32.60
16532;DHT22;66872;63.142;14.482;2023-05-16T00:39:18;18.70;32.60
16532;DHT22;66872;63.142;14.482;2023-05-16T00:41:45;18.60;32.60
16532;DHT22;66872;63.142;14.482;2023-05-16T00:44:11;18.60;32.50
16532;DHT22;66872;63.142;14.482;2023-05-16T00:46:36;18.60;32.60
16532;DHT22;66872;63.142;14.482;2023-05-16T00:49:03;18.60;32.60
16532;DHT22;66872;63.142;14.482;2023-05-16T00:51:29;18.60;32.60
16532;DHT22;66872;63.142;14.482;2023-05-16T00:53:56;18.60;32.60
16532;DHT22;66872;63.142;14.482;2023-05-16T00:56:21;18.60;32.60
16532;DHT22;66872;63.142;14.482;2023-05-16T00:58:48;18.60;32.70
16532;DHT22;66872;63.142;14.482;2023-05-16T01:01:15;18.60;32.70
16532;DHT22;66872;63.142;14.482;2023-05-16T01:03:41;18.60;32.70
16532;DHT22;66872;63.142;14.482;2023-05-16T01:06:11;18.60;32.70
16532;DHT22;66872;63.142;14.482;2023-05-16T01:08:37;18.50;32.70
16532;DHT22;66872;63.142;14.482;2023-05-16T01:27:44;18.50;32.90
16532;DHT22;66872;63.142;14.482;2023-05-16T01:30:17;18.40;32.80
16532;DHT22;66872;63.142;14.482;2023-05-16T01:32:44;18.40;32.90
16532;DHT22;66872;63.142;14.482;2023-05-16T01:35:11;18.40;32.90
16532;DHT22;66872;63.142;14.482;2023-05-16T01:42:59;18.40;33.00
16532;DHT22;66872;63.142;14.482;2023-05-16T01:45:31;18.40;33.00
16532;DHT22;66872;63.142;14.482;2023-05-16T01:48:06;18.40;33.00
16532;DHT22;66872;63.142;14.482;2023-05-16T01:50:43;18.40;33.10
16532;DHT22;66872;63.142;14.482;2023-05-16T01:53:24;18.30;33.00
16532;DHT22;66872;63.142;14.482;2023-05-16T01:55:51;18.30;33.00
16532;DHT22;66872;63.142;14.482;2023-05-16T01:58:22;18.30;33.00
16532;DHT22;66872;63.142;14.482;2023-05-16T02:00:52;18.30;33.10
16532;DHT22;66872;63.142;14.482;2023-05-16T02:03:17;18.30;33.10
16532;DHT22;66872;63.142;14.482;2023-05-16T02:05:43;18.30;33.10
16532;DHT22;66872;63.142;14.482;2023-05-16T02:08:09;18.30;33.20
16532;DHT22;66872;63.142;14.482;2023-05-16T02:10:35;18.30;33.20
16532;DHT22;66872;63.142;14.482;2023-05-16T02:13:01;18.30;33.20
16532;DHT22;66872;63.142;14.482;2023-05-16T02:15:26;18.20;33.20
16532;DHT22;66872;63.142;14.482;2023-05-16T02:17:53;18.20;33.20
16532;DHT22;66872;63.142;14.482;2023-05-16T02:20:18;18.20;33.20
16532;DHT22;66872;63.142;14.482;2023-05-16T02:22:44;18.20;33.20
16532;DHT22;66872;63.142;14.482;2023-05-16T02:25:14;18.20;33.20
16532;DHT22;66872;63.142;14.482;2023-05-16T02:27:40;18.20;33.30
16532;DHT22;66872;63.142;14.482;2023-05-16T02:30:08;18.20;33.30
16532;DHT22;66872;63.142;14.482;2023-05-16T02:32:34;18.20;33.30
16532;DHT22;66872;63.142;14.482;2023-05-16T02:35:00;18.20;33.30
16532;DHT22;66872;63.142;14.482;2023-05-16T02:37:26;18.20;33.30
16532;DHT22;66872;63.142;14.482;2023-05-16T02:39:51;18.20;33.30
16532;DHT22;66872;63.142;14.482;2023-05-16T02:42:17;18.20;33.30
16532;DHT22;66872;63.142;14.482;2023-05-16T02:44:43;18.20;33.30
16532;DHT22;66872;63.142;14.482;2023-05-16T02:47:09;18.20;33.30
16532;DHT22;66872;63.142;14.482;2023-05-16T02:49:34;18.20;33.40
16532;DHT22;66872;63.142;14.482;2023-05-16T02:52:00;18.20;33.40
16532;DHT22;66872;63.142;14.482;2023-05-16T02:54:26;18.10;33.30
16532;DHT22;66872;63.142;14.482;2023-05-16T02:56:51;18.10;33.30
16532;DHT22;66872;63.142;14.482;2023-05-16T02:59:17;18.10;33.30
16532;DHT22;66872;63.142;14.482;2023-05-16T03:01:43;18.10;33.30
16532;DHT22;66872;63.142;14.482;2023-05-16T03:04:08;18.10;33.30
16532;DHT22;66872;63.142;14.482;2023-05-16T03:06:34;18.10;33.30
16532;DHT22;66872;63.142;14.482;2023-05-16T03:09:00;18.10;33.30
16532;DHT22;66872;63.142;14.482;2023-05-16T03:11:26;18.10;33.30
16532;DHT22;66872;63.142;14.482;2023-05-16T03:13:53;18.10;33.30
16532;DHT22;66872;63.142;14.482;2023-05-16T03:16:19;18.20;33.30
16532;DHT22;66872;63.142;14.482;2023-05-16T03:18:44;18.20;33.30
16532;DHT22;66872;63.142;14.482;2023-05-16T03:21:10;18.20;33.30
16532;DHT22;66872;63.142;14.482;2023-05-16T03:23:36;18.20;33.20
16532;DHT22;66872;63.142;14.482;2023-05-16T03:26:01;18.20;33.20
16532;DHT22;66872;63.142;14.482;2023-05-16T03:28:27;18.20;33.20
16532;DHT22;66872;63.142;14.482;2023-05-16T03:30:53;18.20;33.20
16532;DHT22;66872;63.142;14.482;2023-05-16T03:33:18;18.20;33.10
16532;DHT22;66872;63.142;14.482;2023-05-16T03:35:45;18.20;33.10
16532;DHT22;66872;63.142;14.482;2023-05-16T03:38:11;18.20;33.00
16532;DHT22;66872;63.142;14.482;2023-05-16T03:40:37;18.20;33.00
16532;DHT22;66872;63.142;14.482;2023-05-16T03:43:03;18.20;33.00
16532;DHT22;66872;63.142;14.482;2023-05-16T03:45:29;18.20;33.10
16532;DHT22;66872;63.142;14.482;2023-05-16T03:47:56;18.20;33.00
16532;DHT22;66872;63.142;14.482;2023-05-16T03:50:21;18.20;33.00
16532;DHT22;66872;63.142;14.482;2023-05-16T03:52:47;18.20;33.00
16532;DHT22;66872;63.142;14.482;2023-05-16T03:55:13;18.20;33.00
16532;DHT22;66872;63.142;14.482;2023-05-16T03:57:40;18.20;33.00
16532;DHT22;66872;63.142;14.482;2023-05-16T04:00:09;18.20;33.00
16532;DHT22;66872;63.142;14.482;2023-05-16T04:02:39;18.20;33.00
16532;DHT22;66872;63.142;14.482;2023-05-16T04:05:07;18.20;33.00
16532;DHT22;66872;63.142;14.482;2023-05-16T04:07:33;18.20;33.00
16532;DHT22;66872;63.142;14.482;2023-05-16T04:09:58;18.20;33.00
16532;DHT22;66872;63.142;14.482;2023-05-16T04:12:24;18.20;33.00
16532;DHT22;66872;63.142;14.482;2023-05-16T04:14:50;18.20;33.00
16532;DHT22;66872;63.142;14.482;2023-05-16T04:17:15;18.20;33.00
16532;DHT22;66872;63.142;14.482;2023-05-16T04:19:41;18.20;33.00
16532;DHT22;66872;63.142;14.482;2023-05-16T04:22:07;18.20;33.00
16532;DHT22;66872;63.142;14.482;2023-05-16T04:24:33;18.20;33.00
16532;DHT22;66872;63.142;14.482;2023-05-16T04:26:59;18.20;33.00
16532;DHT22;66872;63.142;14.482;2023-05-16T04:29:25;18.20;33.00
16532;DHT22;66872;63.142;14.482;2023-05-16T04:31:51;18.10;33.60
16532;DHT22;66872;63.142;14.482;2023-05-16T04:34:17;18.10;33.00
16532;DHT22;66872;63.142;14.482;2023-05-16T04:36:43;18.10;33.00
16532;DHT22;66872;63.142;14.482;2023-05-16T04:39:08;18.10;33.00
16532;DHT22;66872;63.142;14.482;2023-05-16T04:41:34;18.10;33.00
16532;DHT22;66872;63.142;14.482;2023-05-16T04:44:01;18.10;33.00
16532;DHT22;66872;63.142;14.482;2023-05-16T04:46:30;18.10;33.00
16532;DHT22;66872;63.142;14.482;2023-05-16T04:48:56;18.10;33.00
16532;DHT22;66872;63.142;14.482;2023-05-16T04:51:22;18.10;33.00
16532;DHT22;66872;63.142;14.482;2023-05-16T04:53:48;18.10;33.00
16532;DHT22;66872;63.142;14.482;2023-05-16T04:56:13;18.20;33.00
16532;DHT22;66872;63.142;14.482;2023-05-16T04:58:39;18.10;33.00
16532;DHT22;66872;63.142;14.482;2023-05-16T05:01:04;18.10;33.00
16532;DHT22;66872;63.142;14.482;2023-05-16T05:03:31;18.10;33.00
16532;DHT22;66872;63.142;14.482;2023-05-16T05:05:56;18.10;32.90
16532;DHT22;66872;63.142;14.482;2023-05-16T05:08:22;18.20;33.00
16532;DHT22;66872;63.142;14.482;2023-05-16T05:10:48;18.10;32.90
16532;DHT22;66872;63.142;14.482;2023-05-16T05:13:13;18.20;33.00
16532;DHT22;66872;63.142;14.482;2023-05-16T05:15:39;18.20;33.00
16532;DHT22;66872;63.142;14.482;2023-05-16T05:18:05;18.20;33.00
16532;DHT22;66872;63.142;14.482;2023-05-16T05:20:30;18.20;33.00
16532;DHT22;66872;63.142;14.482;2023-05-16T05:22:56;18.20;32.90
16532;DHT22;66872;63.142;14.482;2023-05-16T05:25:22;18.20;32.90
16532;DHT22;66872;63.142;14.482;2023-05-16T05:27:48;18.20;32.90
16532;DHT22;66872;63.142;14.482;2023-05-16T05:30:13;18.20;32.90
16532;DHT22;66872;63.142;14.482;2023-05-16T05:32:39;18.20;32.90
16532;DHT22;66872;63.142;14.482;2023-05-16T05:35:05;18.20;32.90
16532;DHT22;66872;63.142;14.482;2023-05-16T05:37:31;18.30;32.90
16532;DHT22;66872;63.142;14.482;2023-05-16T05:39:56;18.30;32.90
16532;DHT22;66872;63.142;14.482;2023-05-16T05:42:22;18.40;33.00
16532;DHT22;66872;63.142;14.482;2023-05-16T05:44:48;18.40;32.90
16532;DHT22;66872;63.142;14.482;2023-05-16T05:47:14;18.40;32.80
16532;DHT22;66872;63.142;14.482;2023-05-16T05:49:40;18.70;33.30
16532;DHT22;66872;63.142;14.482;2023-05-16T05:52:05;19.10;32.50
16532;DHT22;66872;63.142;14.482;2023-05-16T05:54:32;19.40;32.00
16532;DHT22;66872;63.142;14.482;2023-05-16T05:56:58;19.70;31.20
16532;DHT22;66872;63.142;14.482;2023-05-16T05:59:24;19.60;30.80
16532;DHT22;66872;63.142;14.482;2023-05-16T06:01:50;19.60;30.90
16532;DHT22;66872;63.142;14.482;2023-05-16T06:04:19;19.60;31.00
16532;DHT22;66872;63.142;14.482;2023-05-16T06:06:45;19.70;31.10
16532;DHT22;66872;63.142;14.482;2023-05-16T06:09:11;20.10;31.40
16532;DHT22;66872;63.142;14.482;2023-05-16T06:11:38;20.30;30.20
16532;DHT22;66872;63.142;14.482;2023-05-16T06:14:04;20.40;30.00
16532;DHT22;66872;63.142;14.482;2023-05-16T06:16:29;20.40;29.90
16532;DHT22;66872;63.142;14.482;2023-05-16T06:18:55;20.50;29.90
16532;DHT22;66872;63.142;14.482;2023-05-16T06:21:21;20.50;29.70
16532;DHT22;66872;63.142;14.482;2023-05-16T06:23:46;20.40;29.70
16532;DHT22;66872;63.142;14.482;2023-05-16T06:26:12;20.30;30.40
16532;DHT22;66872;63.142;14.482;2023-05-16T06:28:38;20.20;30.00
16532;DHT22;66872;63.142;14.482;2023-05-16T06:31:03;20.30;30.10
16532;DHT22;66872;63.142;14.482;2023-05-16T06:33:29;20.60;30.00
16532;DHT22;66872;63.142;14.482;2023-05-16T06:35:55;20.90;29.50
16532;DHT22;66872;63.142;14.482;2023-05-16T06:38:21;21.20;29.20
16532;DHT22;66872;63.142;14.482;2023-05-16T06:40:46;21.20;28.80
16532;DHT22;66872;63.142;14.482;2023-05-16T06:43:12;21.20;28.90
16532;DHT22;66872;63.142;14.482;2023-05-16T06:45:38;21.40;28.80
16532;DHT22;66872;63.142;14.482;2023-05-16T06:48:05;21.60;28.50
16532;DHT22;66872;63.142;14.482;2023-05-16T06:50:32;21.80;28.30
16532;DHT22;66872;63.142;14.482;2023-05-16T06:52:59;21.90;28.10
16532;DHT22;66872;63.142;14.482;2023-05-16T06:55:25;22.00;27.90
16532;DHT22;66872;63.142;14.482;2023-05-16T06:57:51;22.10;27.80
16532;DHT22;66872;63.142;14.482;2023-05-16T07:00:17;22.20;27.70
16532;DHT22;66872;63.142;14.482;2023-05-16T07:02:43;22.20;27.50
16532;DHT22;66872;63.142;14.482;2023-05-16T07:05:09;22.30;27.50
16532;DHT22;66872;63.142;14.482;2023-05-16T07:07:35;22.20;27.50
16532;DHT22;66872;63.142;14.482;2023-05-16T07:10:01;22.20;27.60
16532;DHT22;66872;63.142;14.482;2023-05-16T07:12:26;22.00;27.60
16532;DHT22;66872;63.142;14.482;2023-05-16T07:14:52;21.90;27.80
16532;DHT22;66872;63.142;14.482;2023-05-16T07:17:18;21.70;27.90
16532;DHT22;66872;63.142;14.482;2023-05-16T07:19:43;21.60;28.00
16532;DHT22;66872;63.142;14.482;2023-05-16T07:22:09;21.70;28.10
16532;DHT22;66872;63.142;14.482;2023-05-16T07:24:36;21.70;28.00
16532;DHT22;66872;63.142;14.482;2023-05-16T07:27:02;21.90;28.00
16532;DHT22;66872;63.142;14.482;2023-05-16T07:29:28;22.00;27.80
16532;DHT22;66872;63.142;14.482;2023-05-16T07:31:54;22.00;27.70
16532;DHT22;66872;63.142;14.482;2023-05-16T07:34:20;21.90;27.70
16532;DHT22;66872;63.142;14.482;2023-05-16T07:36:46;21.80;27.80
16532;DHT22;66872;63.142;14.482;2023-05-16T07:39:12;21.70;28.00
16532;DHT22;66872;63.142;14.482;2023-05-16T07:41:37;21.60;28.00
16532;DHT22;66872;63.142;14.482;2023-05-16T07:44:03;21.50;28.10
16532;DHT22;66872;63.142;14.482;2023-05-16T07:46:29;21.50;28.20
16532;DHT22;66872;63.142;14.482;2023-05-16T07:48:54;21.40;28.20
16532;DHT22;66872;63.142;14.482;2023-05-16T07:51:20;21.40;28.30
16532;DHT22;66872;63.142;14.482;2023-05-16T07:53:46;21.40;28.30
16532;DHT22;66872;63.142;14.482;2023-05-16T07:56:12;21.30;28.30
16532;DHT22;66872;63.142;14.482;2023-05-16T07:58:38;21.30;28.40
16532;DHT22;66872;63.142;14.482;2023-05-16T08:01:03;21.20;28.40
16532;DHT22;66872;63.142;14.482;2023-05-16T08:03:29;21.20;28.50
16532;DHT22;66872;63.142;14.482;2023-05-16T08:05:55;21.10;28.60
16532;DHT22;66872;63.142;14.482;2023-05-16T08:08:20;21.00;28.70
16532;DHT22;66872;63.142;14.482;2023-05-16T08:10:46;21.00;28.80
16532;DHT22;66872;63.142;14.482;2023-05-16T08:13:12;21.00;28.90
16532;DHT22;66872;63.142;14.482;2023-05-16T08:15:37;20.90;28.80
16532;DHT22;66872;63.142;14.482;2023-05-16T08:18:03;21.00;28.90
16532;DHT22;66872;63.142;14.482;2023-05-16T08:20:31;20.90;28.90
16532;DHT22;66872;63.142;14.482;2023-05-16T08:22:57;20.90;29.00
16532;DHT22;66872;63.142;14.482;2023-05-16T08:25:23;20.80;29.10
16532;DHT22;66872;63.142;14.482;2023-05-16T08:27:49;20.70;29.10
16532;DHT22;66872;63.142;14.482;2023-05-16T08:30:15;20.60;29.30
16532;DHT22;66872;63.142;14.482;2023-05-16T08:32:41;20.50;29.30
16532;DHT22;66872;63.142;14.482;2023-05-16T08:35:07;20.50;29.50
16532;DHT22;66872;63.142;14.482;2023-05-16T08:37:33;20.40;29.60
16532;DHT22;66872;63.142;14.482;2023-05-16T08:39:59;20.30;29.70
16532;DHT22;66872;63.142;14.482;2023-05-16T08:42:25;20.20;29.80
16532;DHT22;66872;63.142;14.482;2023-05-16T08:44:51;20.10;29.90
16532;DHT22;66872;63.142;14.482;2023-05-16T08:47:18;20.10;30.00
16532;DHT22;66872;63.142;14.482;2023-05-16T08:49:47;20.00;30.00
16532;DHT22;66872;63.142;14.482;2023-05-16T08:52:17;19.90;30.10
16532;DHT22;66872;63.142;14.482;2023-05-16T08:54:45;19.90;30.30
16532;DHT22;66872;63.142;14.482;2023-05-16T08:57:12;19.90;30.40
16532;DHT22;66872;63.142;14.482;2023-05-16T08:59:39;19.80;30.50
16532;DHT22;66872;63.142;14.482;2023-05-16T09:02:06;19.80;30.50
16532;DHT22;66872;63.142;14.482;2023-05-16T09:04:32;19.80;30.60
16532;DHT22;66872;63.142;14.482;2023-05-16T09:06:58;19.70;30.60
16532;DHT22;66872;63.142;14.482;2023-05-16T09:09:24;19.70;30.70
16532;DHT22;66872;63.142;14.482;2023-05-16T09:11:50;19.70;30.80
16532;DHT22;66872;63.142;14.482;2023-05-16T09:14:15;19.70;30.80
16532;DHT22;66872;63.142;14.482;2023-05-16T09:16:43;19.70;30.90
16532;DHT22;66872;63.142;14.482;2023-05-16T09:19:11;19.70;30.90
16532;DHT22;66872;63.142;14.482;2023-05-16T09:21:39;19.70;30.90
16532;DHT22;66872;63.142;14.482;2023-05-16T09:24:05;19.60;30.90
16532;DHT22;66872;63.142;14.482;2023-05-16T09:26:36;19.60;31.50
16532;DHT22;66872;63.142;14.482;2023-05-16T09:29:10;19.60;30.90
16532;DHT22;66872;63.142;14.482;2023-05-16T09:31:36;19.60;31.00
16532;DHT22;66872;63.142;14.482;2023-05-16T09:34:11;19.60;31.00
16532;DHT22;66872;63.142;14.482;2023-05-16T09:36:37;19.60;31.10
16532;DHT22;66872;63.142;14.482;2023-05-16T09:39:04;19.60;31.00
16532;DHT22;66872;63.142;14.482;2023-05-16T09:41:33;19.70;31.10
16532;DHT22;66872;63.142;14.482;2023-05-16T09:44:05;19.70;31.00
16532;DHT22;66872;63.142;14.482;2023-05-16T09:46:36;19.70;31.00
16532;DHT22;66872;63.142;14.482;2023-05-16T09:49:02;19.80;30.90
16532;DHT22;66872;63.142;14.482;2023-05-16T09:51:28;19.80;30.80
16532;DHT22;66872;63.142;14.482;2023-05-16T09:53:54;19.90;30.80
16532;DHT22;66872;63.142;14.482;2023-05-16T09:56:22;19.90;30.70
16532;DHT22;66872;63.142;14.482;2023-05-16T09:58:51;19.90;30.60
16532;DHT22;66872;63.142;14.482;2023-05-16T10:01:17;20.00;30.50
16532;DHT22;66872;63.142;14.482;2023-05-16T10:03:43;20.00;30.50
16532;DHT22;66872;63.142;14.482;2023-05-16T10:06:09;20.10;30.50
16532;DHT22;66872;63.142;14.482;2023-05-16T10:08:37;20.10;30.40
16532;DHT22;66872;63.142;14.482;2023-05-16T10:11:05;20.10;30.40
16532;DHT22;66872;63.142;14.482;2023-05-16T10:13:34;20.10;30.40
16532;DHT22;66872;63.142;14.482;2023-05-16T10:16:06;20.10;30.40
16532;DHT22;66872;63.142;14.482;2023-05-16T10:18:32;20.10;30.40
16532;DHT22;66872;63.142;14.482;2023-05-16T10:21:20;20.10;30.40
16532;DHT22;66872;63.142;14.482;2023-05-16T10:23:47;20.10;30.40
16532;DHT22;66872;63.142;14.482;2023-05-16T10:26:16;20.10;30.40
16532;DHT22;66872;63.142;14.482;2023-05-16T10:28:42;20.10;30.40
16532;DHT22;66872;63.142;14.482;2023-05-16T10:31:09;20.10;32.20
16532;DHT22;66872;63.142;14.482;2023-05-16T10:33:36;20.10;33.30
16532;DHT22;66872;63.142;14.482;2023-05-16T10:36:02;20.10;33.50
16532;DHT22;66872;63.142;14.482;2023-05-16T10:38:30;20.10;33.50
16532;DHT22;66872;63.142;14.482;2023-05-16T10:40:56;20.10;33.40
16532;DHT22;66872;63.142;14.482;2023-05-16T10:43:24;20.10;33.30
16532;DHT22;66872;63.142;14.482;2023-05-16T10:46:04;20.10;33.10
16532;DHT22;66872;63.142;14.482;2023-05-16T10:48:35;20.10;33.00
16532;DHT22;66872;63.142;14.482;2023-05-16T10:51:02;20.10;32.90
16532;DHT22;66872;63.142;14.482;2023-05-16T11:01:21;20.10;32.60
16532;DHT22;66872;63.142;14.482;2023-05-16T11:09:23;20.00;32.60
16532;DHT22;66872;63.142;14.482;2023-05-16T11:14:21;20.00;32.50
16532;DHT22;66872;63.142;14.482;2023-05-16T11:17:37;20.00;32.50
16532;DHT22;66872;63.142;14.482;2023-05-16T11:19:42;20.00;32.50
16532;DHT22;66872;63.142;14.482;2023-05-16T11:25:03;20.00;32.50
16532;DHT22;66872;63.142;14.482;2023-05-16T11:27:46;20.00;32.50
16532;DHT22;66872;63.142;14.482;2023-05-16T11:30:14;20.00;32.50
16532;DHT22;66872;63.142;14.482;2023-05-16T11:32:42;19.90;32.40
16532;DHT22;66872;63.142;14.482;2023-05-16T11:35:10;19.90;32.40
16532;DHT22;66872;63.142;14.482;2023-05-16T11:37:37;19.90;32.50
16532;DHT22;66872;63.142;14.482;2023-05-16T11:40:07;19.80;32.50
16532;DHT22;66872;63.142;14.482;2023-05-16T11:42:35;19.80;32.60
16532;DHT22;66872;63.142;14.482;2023-05-16T11:45:09;19.70;32.60
16532;DHT22;66872;63.142;14.482;2023-05-16T11:47:37;19.70;32.70
16532;DHT22;66872;63.142;14.482;2023-05-16T11:52:36;19.70;32.90
16532;DHT22;66872;63.142;14.482;2023-05-16T11:55:04;19.60;32.80
16532;DHT22;66872;63.142;14.482;2023-05-16T11:57:31;19.60;32.90
16532;DHT22;66872;63.142;14.482;2023-05-16T12:00:04;19.60;32.90
16532;DHT22;66872;63.142;14.482;2023-05-16T12:02:35;19.50;33.00
16532;DHT22;66872;63.142;14.482;2023-05-16T12:05:09;19.50;33.10
16532;DHT22;66872;63.142;14.482;2023-05-16T12:07:36;19.50;33.20
16532;DHT22;66872;63.142;14.482;2023-05-16T12:10:05;19.50;33.30
16532;DHT22;66872;63.142;14.482;2023-05-16T12:12:32;19.40;33.30
16532;DHT22;66872;63.142;14.482;2023-05-16T12:14:58;19.40;33.40
16532;DHT22;66872;63.142;14.482;2023-05-16T12:17:24;19.40;33.40
16532;DHT22;66872;63.142;14.482;2023-05-16T12:19:50;19.40;33.40
16532;DHT22;66872;63.142;14.482;2023-05-16T12:22:16;19.40;33.40
16532;DHT22;66872;63.142;14.482;2023-05-16T12:24:45;19.40;33.50
16532;DHT22;66872;63.142;14.482;2023-05-16T12:27:10;19.40;33.60
16532;DHT22;66872;63.142;14.482;2023-05-16T12:29:37;19.40;33.50
16532;DHT22;66872;63.142;14.482;2023-05-16T12:32:03;19.30;33.50
16532;DHT22;66872;63.142;14.482;2023-05-16T12:34:32;19.30;33.50
16532;DHT22;66872;63.142;14.482;2023-05-16T12:36:58;19.30;33.60
16532;DHT22;66872;63.142;14.482;2023-05-16T12:39:24;19.30;33.60
16532;DHT22;66872;63.142;14.482;2023-05-16T12:41:49;19.30;33.60
16532;DHT22;66872;63.142;14.482;2023-05-16T12:44:17;19.30;34.20
16532;DHT22;66872;63.142;14.482;2023-05-16T12:46:45;19.20;33.50
16532;DHT22;66872;63.142;14.482;2023-05-16T12:49:12;19.20;33.50
16532;DHT22;66872;63.142;14.482;2023-05-16T12:51:38;19.20;33.60
16532;DHT22;66872;63.142;14.482;2023-05-16T12:54:11;19.20;33.70
16532;DHT22;66872;63.142;14.482;2023-05-16T12:56:38;19.20;33.80
16532;DHT22;66872;63.142;14.482;2023-05-16T12:59:04;19.20;33.90
16532;DHT22;66872;63.142;14.482;2023-05-16T13:01:30;19.20;33.80
16532;DHT22;66872;63.142;14.482;2023-05-16T13:03:55;19.20;33.80
16532;DHT22;66872;63.142;14.482;2023-05-16T13:06:21;19.10;33.70
16532;DHT22;66872;63.142;14.482;2023-05-16T13:08:47;19.10;33.70
16532;DHT22;66872;63.142;14.482;2023-05-16T13:11:12;19.20;33.70
16532;DHT22;66872;63.142;14.482;2023-05-16T13:13:38;19.20;33.60
16532;DHT22;66872;63.142;14.482;2023-05-16T13:16:04;19.20;33.60
16532;DHT22;66872;63.142;14.482;2023-05-16T13:18:29;19.20;33.50
16532;DHT22;66872;63.142;14.482;2023-05-16T13:20:55;19.30;33.50
16532;DHT22;66872;63.142;14.482;2023-05-16T13:23:21;19.30;33.40
16532;DHT22;66872;63.142;14.482;2023-05-16T13:25:47;19.30;33.30
16532;DHT22;66872;63.142;14.482;2023-05-16T13:28:13;19.30;33.30
16532;DHT22;66872;63.142;14.482;2023-05-16T13:30:38;19.30;33.30
16532;DHT22;66872;63.142;14.482;2023-05-16T13:33:04;19.30;33.30
16532;DHT22;66872;63.142;14.482;2023-05-16T13:35:30;19.30;33.30
16532;DHT22;66872;63.142;14.482;2023-05-16T13:37:55;19.30;33.40
16532;DHT22;66872;63.142;14.482;2023-05-16T13:40:21;19.30;33.40
16532;DHT22;66872;63.142;14.482;2023-05-16T13:42:47;19.20;33.30
16532;DHT22;66872;63.142;14.482;2023-05-16T13:45:13;19.20;33.30
16532;DHT22;66872;63.142;14.482;2023-05-16T13:47:39;19.20;33.30
16532;DHT22;66872;63.142;14.482;2023-05-16T13:50:05;19.30;33.40
16532;DHT22;66872;63.142;14.482;2023-05-16T13:52:35;19.30;33.30
16532;DHT22;66872;63.142;14.482;2023-05-16T13:55:01;19.30;33.20
16532;DHT22;66872;63.142;14.482;2023-05-16T13:57:27;19.30;33.20
16532;DHT22;66872;63.142;14.482;2023-05-16T13:59:53;19.30;33.20
16532;DHT22;66872;63.142;14.482;2023-05-16T14:02:19;19.30;33.10
16532;DHT22;66872;63.142;14.482;2023-05-16T14:04:45;19.30;33.20
16532;DHT22;66872;63.142;14.482;2023-05-16T14:07:10;19.20;33.10
16532;DHT22;66872;63.142;14.482;2023-05-16T14:09:36;19.20;33.10
16532;DHT22;66872;63.142;14.482;2023-05-16T14:12:05;19.20;33.20
16532;DHT22;66872;63.142;14.482;2023-05-16T14:14:32;19.20;33.30
16532;DHT22;66872;63.142;14.482;2023-05-16T14:16:58;19.20;33.30
16532;DHT22;66872;63.142;14.482;2023-05-16T14:19:24;19.10;33.50
16532;DHT22;66872;63.142;14.482;2023-05-16T14:21:50;19.10;33.50
16532;DHT22;66872;63.142;14.482;2023-05-16T14:24:15;19.10;33.50
16532;DHT22;66872;63.142;14.482;2023-05-16T14:26:41;19.10;33.50
16532;DHT22;66872;63.142;14.482;2023-05-16T14:29:07;19.10;33.50
16532;DHT22;66872;63.142;14.482;2023-05-16T14:31:32;19.10;33.60
16532;DHT22;66872;63.142;14.482;2023-05-16T14:34:00;19.00;34.10
16532;DHT22;66872;63.142;14.482;2023-05-16T14:36:26;19.00;33.50
16532;DHT22;66872;63.142;14.482;2023-05-16T14:38:52;19.00;33.50
16532;DHT22;66872;63.142;14.482;2023-05-16T14:41:17;19.00;33.50
16532;DHT22;66872;63.142;14.482;2023-05-16T14:43:44;19.00;33.60
16532;DHT22;66872;63.142;14.482;2023-05-16T14:46:10;19.00;33.50
16532;DHT22;66872;63.142;14.482;2023-05-16T14:48:36;19.00;33.60
16532;DHT22;66872;63.142;14.482;2023-05-16T14:51:02;19.00;33.60
16532;DHT22;66872;63.142;14.482;2023-05-16T14:53:29;19.00;33.60
16532;DHT22;66872;63.142;14.482;2023-05-16T14:55:55;19.00;33.50
16532;DHT22;66872;63.142;14.482;2023-05-16T14:58:20;19.00;33.50
16532;DHT22;66872;63.142;14.482;2023-05-16T15:00:46;19.00;33.50
16532;DHT22;66872;63.142;14.482;2023-05-16T15:03:12;19.00;33.50
16532;DHT22;66872;63.142;14.482;2023-05-16T15:05:37;19.00;33.50
16532;DHT22;66872;63.142;14.482;2023-05-16T15:08:03;19.00;33.60
16532;DHT22;66872;63.142;14.482;2023-05-16T15:10:29;19.00;33.60
16532;DHT22;66872;63.142;14.482;2023-05-16T15:12:54;19.00;33.60
16532;DHT22;66872;63.142;14.482;2023-05-16T15:15:20;19.00;33.60
16532;DHT22;66872;63.142;14.482;2023-05-16T15:17:46;18.90;33.60
16532;DHT22;66872;63.142;14.482;2023-05-16T15:20:12;18.90;33.60
16532;DHT22;66872;63.142;14.482;2023-05-16T15:22:38;18.90;33.60
16532;DHT22;66872;63.142;14.482;2023-05-16T15:25:05;18.90;33.60
16532;DHT22;66872;63.142;14.482;2023-05-16T15:27:31;18.90;33.60
16532;DHT22;66872;63.142;14.482;2023-05-16T15:29:58;18.90;33.60
16532;DHT22;66872;63.142;14.482;2023-05-16T15:32:24;18.90;33.60
16532;DHT22;66872;63.142;14.482;2023-05-16T15:34:50;18.90;33.70
16532;DHT22;66872;63.142;14.482;2023-05-16T15:37:16;18.90;33.70
16532;DHT22;66872;63.142;14.482;2023-05-16T15:39:41;18.90;33.70
16532;DHT22;66872;63.142;14.482;2023-05-16T15:42:07;18.90;33.70
16532;DHT22;66872;63.142;14.482;2023-05-16T15:44:33;18.80;33.60
16532;DHT22;66872;63.142;14.482;2023-05-16T15:47:00;18.80;33.70
16532;DHT22;66872;63.142;14.482;2023-05-16T15:49:26;18.80;33.60
16532;DHT22;66872;63.142;14.482;2023-05-16T15:51:52;18.80;33.60
16532;DHT22;66872;63.142;14.482;2023-05-16T15:54:18;18.80;33.60